Time;durP1;ratioP1;P1;durP2;ratioP2;P2;SDS_P1;SDS_P2;PMS_P1;PMS_P2;Temp;Humidity;BMP_temperature;BMP_pressure;BME280_temperature;BME280_humidity;BME280_pressure;Samples;Min_cycle;Max_cycle;Signal;HPM_P1;HPM_P2
2022/04/03 00:00:56;;;;;;;5.30;3.20;;;;;;;3.64;56.40;97349.75;5022700;28;20037;-79
2022/04/03 00:03:21;;;;;;;7.13;3.15;;;;;;;3.70;55.74;97337.88;5027921;28;20037;-79
2022/04/03 00:05:46;;;;;;;4.90;3.20;;;;;;;3.51;56.67;97334.28;5011416;28;20033;-80
2022/04/03 00:08:12;;;;;;;6.00;3.88;;;;;;;3.65;56.26;97347.97;5028316;28;20029;-79
2022/04/03 00:10:39;;;;;;;18.80;8.70;;;;;;;3.67;55.85;97344.22;5027877;28;20382;-79
2022/04/03 00:13:05;;;;;;;15.05;7.45;;;;;;;3.73;56.10;97350.38;5011637;28;20033;-79
2022/04/03 00:15:31;;;;;;;16.77;7.85;;;;;;;3.66;56.13;97341.84;5028021;28;20091;-79
2022/04/03 00:17:57;;;;;;;11.82;6.13;;;;;;;3.78;55.77;97344.63;5027816;28;20478;-79
2022/04/03 00:20:22;;;;;;;7.60;3.78;;;;;;;3.73;56.68;97347.78;5010832;28;20465;-79
2022/04/03 00:22:48;;;;;;;8.07;3.90;;;;;;;3.50;56.18;97336.06;5027122;28;20049;-79
2022/04/03 00:25:18;;;;;;;6.32;4.07;;;;;;;3.51;56.02;97350.53;4994798;28;20040;-80
2022/04/03 00:27:47;;;;;;;9.00;5.47;;;;;;;3.46;56.96;97337.47;5027697;28;20401;-79
2022/04/03 00:30:12;;;;;;;6.45;4.20;;;;;;;3.71;55.89;97337.69;5043866;28;20025;-79
2022/04/03 00:32:38;;;;;;;4.65;3.47;;;;;;;3.70;56.15;97343.84;5011142;28;20358;-79
2022/04/03 00:35:04;;;;;;;6.80;4.32;;;;;;;3.64;56.20;97343.81;5027500;28;20034;-79
2022/04/03 00:37:30;;;;;;;6.68;3.80;;;;;;;3.59;56.23;97349.56;5027513;28;20613;-79
2022/04/03 00:39:56;;;;;;;6.85;3.83;;;;;;;3.72;56.17;97347.00;5026756;28;20496;-79
2022/04/03 00:42:21;;;;;;;7.05;4.43;;;;;;;3.64;56.06;97354.13;5027603;28;20072;-80
2022/04/03 00:44:47;;;;;;;6.57;3.63;;;;;;;3.54;56.94;97347.56;5027367;28;20038;-79
2022/04/03 00:47:14;;;;;;;6.55;4.00;;;;;;;3.67;56.37;97349.38;5011285;28;20570;-79
2022/04/03 00:49:40;;;;;;;9.20;5.45;;;;;;;3.65;56.51;97353.13;5027228;28;20076;-79
2022/04/03 00:52:06;;;;;;;9.05;4.82;;;;;;;3.77;56.18;97348.19;5027143;28;20040;-79
2022/04/03 00:54:31;;;;;;;6.88;4.32;;;;;;;3.79;56.00;97357.31;5028745;28;20037;-79
2022/04/03 00:56:57;;;;;;;7.97;4.10;;;;;;;3.74;56.62;97350.16;5027131;28;20041;-80
2022/04/03 00:59:22;;;;;;;6.60;4.68;;;;;;;3.75;56.44;97356.09;5010504;28;20155;-79
2022/04/03 01:01:48;;;;;;;7.85;4.82;;;;;;;3.80;56.72;97347.81;5019622;28;20064;-79
2022/04/03 01:04:13;;;;;;;7.22;4.88;;;;;;;3.70;56.55;97353.31;5007580;28;20036;-79
2022/04/03 01:06:38;;;;;;;7.50;4.35;;;;;;;3.76;56.80;97349.97;5010335;28;20030;-79
2022/04/03 01:09:04;;;;;;;10.18;4.65;;;;;;;3.74;57.24;97357.13;5007039;28;20033;-79
2022/04/03 01:11:30;;;;;;;6.30;3.83;;;;;;;3.72;56.71;97353.94;5007690;28;20354;-79
2022/04/03 01:13:56;;;;;;;6.20;3.65;;;;;;;3.65;57.03;97363.41;4990945;28;20032;-79
2022/04/03 01:16:21;;;;;;;6.85;3.95;;;;;;;3.69;56.92;97356.91;5023763;28;20030;-79
2022/04/03 01:18:46;;;;;;;10.52;3.67;;;;;;;3.67;56.40;97361.47;5006678;28;20029;-79
2022/04/03 01:21:13;;;;;;;12.93;5.93;;;;;;;3.63;56.46;97357.69;4990716;28;20028;-79
2022/04/03 01:23:39;;;;;;;7.18;4.00;;;;;;;3.71;56.29;97357.50;4990710;28;20457;-79
2022/04/03 01:26:05;;;;;;;8.25;3.90;;;;;;;3.60;56.54;97358.88;5023010;28;20041;-79
2022/04/03 01:28:30;;;;;;;5.60;3.67;;;;;;;3.51;57.45;97355.69;4990188;28;20028;-79
2022/04/03 01:30:56;;;;;;;5.15;3.47;;;;;;;3.58;56.92;97353.09;5008122;28;20026;-79
2022/04/03 01:33:21;;;;;;;6.55;3.95;;;;;;;3.68;56.97;97361.25;4990490;28;20030;-79
2022/04/03 01:35:47;;;;;;;6.85;4.00;;;;;;;3.58;56.62;97354.91;5023288;28;20410;-79
2022/04/03 01:38:12;;;;;;;7.15;3.45;;;;;;;3.67;57.09;97358.91;5023037;28;20041;-79
2022/04/03 01:40:38;;;;;;;5.75;3.85;;;;;;;3.67;56.75;97351.16;5007004;28;20573;-79
2022/04/03 01:43:07;;;;;;;7.03;4.28;;;;;;;3.69;56.81;97356.91;5006623;28;20034;-79
2022/04/03 01:45:34;;;;;;;5.80;3.67;;;;;;;3.73;57.07;97352.94;4974417;28;20508;-79
2022/04/03 01:47:59;;;;;;;5.38;3.75;;;;;;;3.73;56.54;97363.25;4990156;28;20037;-79
2022/04/03 01:50:25;;;;;;;5.72;3.45;;;;;;;3.74;56.79;97360.47;5022799;28;20390;-79
2022/04/03 01:52:51;;;;;;;6.00;3.50;;;;;;;3.79;55.98;97357.31;5006693;28;20197;-79
2022/04/03 01:55:17;;;;;;;6.15;4.05;;;;;;;3.75;56.16;97356.91;5022915;28;20486;-79
2022/04/03 01:57:42;;;;;;;4.15;2.80;;;;;;;3.77;56.32;97354.16;4990461;28;20034;-79
2022/04/03 02:00:09;;;;;;;6.63;3.30;;;;;;;3.80;56.78;97352.94;5022682;28;20163;-79
2022/04/03 02:02:38;;;;;;;5.10;2.95;;;;;;;3.75;56.54;97354.34;5023031;28;20529;-78
2022/04/03 02:05:05;;;;;;;6.60;3.67;;;;;;;3.80;56.75;97353.75;5007624;28;20034;-79
2022/04/03 02:07:31;;;;;;;5.05;3.13;;;;;;;3.75;56.88;97354.34;5029900;28;20033;-79
2022/04/03 02:09:56;;;;;;;6.13;3.67;;;;;;;3.75;56.44;97356.09;5025735;28;20084;-79
2022/04/03 02:12:22;;;;;;;7.75;3.75;;;;;;;3.71;56.40;97365.22;5009718;28;20029;-79
2022/04/03 02:14:47;;;;;;;6.57;3.42;;;;;;;3.62;56.69;97359.47;5026575;28;20029;-79
2022/04/03 02:17:13;;;;;;;8.27;4.00;;;;;;;3.66;56.82;97358.06;5044617;28;20114;-79
2022/04/03 02:19:38;;;;;;;6.13;3.50;;;;;;;3.68;57.39;97361.25;5030112;28;20029;-79
2022/04/03 02:22:04;;;;;;;4.97;3.80;;;;;;;3.64;57.19;97354.13;5029706;28;20067;-79
2022/04/03 02:24:29;;;;;;;7.05;3.42;;;;;;;3.52;56.66;97362.41;5029945;28;20051;-79
2022/04/03 02:26:54;;;;;;;6.18;3.92;;;;;;;3.53;57.29;97356.28;5046217;28;20052;-79
2022/04/03 02:29:20;;;;;;;6.03;3.50;;;;;;;3.59;57.52;97364.22;5029364;28;20033;-79
2022/04/03 02:31:45;;;;;;;5.90;3.25;;;;;;;3.63;57.16;97363.59;5046543;28;20488;-79
2022/04/03 02:34:11;;;;;;;6.68;3.70;;;;;;;3.60;56.82;97360.63;5013327;28;20313;-79
2022/04/03 02:36:40;;;;;;;7.50;4.60;;;;;;;3.53;57.40;97355.47;5029953;28;20052;-79
2022/04/03 02:39:06;;;;;;;6.75;3.72;;;;;;;3.54;57.74;97368.16;5012665;28;20030;-79
2022/04/03 02:41:32;;;;;;;6.47;3.83;;;;;;;3.49;57.01;97354.28;5046173;28;20560;-78
2022/04/03 02:43:57;;;;;;;5.55;3.33;;;;;;;3.50;57.52;97374.69;5030802;28;20137;-79
2022/04/03 02:46:22;;;;;;;7.65;3.83;;;;;;;3.41;58.25;97370.72;5029348;28;20082;-79
2022/04/03 02:48:48;;;;;;;6.97;3.63;;;;;;;3.48;57.98;97371.50;5045796;28;20029;-79
2022/04/03 02:51:14;;;;;;;6.18;3.90;;;;;;;3.52;57.90;97374.50;5029140;28;20026;-79
2022/04/03 02:53:39;;;;;;;10.95;5.15;;;;;;;3.46;57.88;97378.66;5012948;28;20414;-79
2022/04/03 02:56:05;;;;;;;11.90;6.70;;;;;;;3.38;57.74;97371.09;5045785;28;20037;-79
2022/04/03 02:58:30;;;;;;;14.05;6.88;;;;;;;3.33;58.11;97371.66;4996151;28;20532;-79
2022/04/03 03:00:55;;;;;;;11.70;7.03;;;;;;;3.33;57.66;97374.22;5045303;28;20040;-79
2022/04/03 03:03:24;;;;;;;14.10;9.02;;;;;;;3.29;58.85;97372.22;5025848;28;20033;-79
2022/04/03 03:05:49;;;;;;;11.60;6.60;;;;;;;3.29;58.87;97377.38;5009691;28;20041;-79
2022/04/03 03:08:14;;;;;;;9.25;5.60;;;;;;;3.28;57.99;97379.16;5044305;28;20030;-79
2022/04/03 03:10:40;;;;;;;8.80;5.80;;;;;;;3.22;58.86;97372.19;5029422;28;20032;-79
2022/04/03 03:13:05;;;;;;;8.57;5.63;;;;;;;3.17;58.45;97364.25;5029031;28;20032;-79
2022/04/03 03:15:31;;;;;;;6.95;4.57;;;;;;;3.24;58.46;97374.59;5045419;28;20571;-79
2022/04/03 03:17:56;;;;;;;6.30;3.50;;;;;;;3.19;58.30;97370.81;5028726;28;20034;-79
2022/04/03 03:20:22;;;;;;;7.32;3.97;;;;;;;3.22;58.46;97376.56;5045493;28;20044;-79
2022/04/03 03:22:48;;;;;;;5.57;3.58;;;;;;;3.16;58.85;97376.34;5030380;28;20029;-79
2022/04/03 03:25:13;;;;;;;7.18;3.53;;;;;;;3.13;59.04;97387.00;5044935;28;20037;-79
2022/04/03 03:27:39;;;;;;;4.90;3.05;;;;;;;3.12;58.82;97380.28;5028720;28;20407;-79
2022/04/03 03:30:06;;;;;;;7.88;4.35;;;;;;;3.08;59.15;97386.78;5011245;28;20116;-79
2022/04/03 03:32:32;;;;;;;5.80;4.03;;;;;;;3.06;58.79;97385.41;5012695;28;20025;-79
2022/04/03 03:34:58;;;;;;;6.93;3.97;;;;;;;3.04;59.52;97390.72;5028582;28;20442;-79
2022/04/03 03:37:23;;;;;;;6.68;4.65;;;;;;;2.98;59.41;97387.16;5012307;28;20088;-79
2022/04/03 03:39:48;;;;;;;6.57;5.03;;;;;;;2.93;59.97;97383.53;5028329;28;20040;-79
2022/04/03 03:42:14;;;;;;;7.60;3.90;;;;;;;2.92;60.26;97393.03;5011899;28;20025;-79
2022/04/03 03:44:40;;;;;;;6.90;4.50;;;;;;;2.89;60.47;97387.50;5028499;28;20032;-79
2022/04/03 03:47:06;;;;;;;9.65;5.45;;;;;;;2.90;60.57;97379.59;5028509;28;20107;-79
2022/04/03 03:49:31;;;;;;;7.53;4.38;;;;;;;2.93;61.17;97397.22;5044664;28;20037;-79
2022/04/03 03:51:57;;;;;;;7.88;3.97;;;;;;;2.97;60.92;97385.56;5012489;28;20484;-79
2022/04/03 03:54:22;;;;;;;9.15;4.00;;;;;;;2.99;61.37;97385.38;5027969;28;20095;-79
2022/04/03 03:56:48;;;;;;;8.88;4.45;;;;;;;3.04;61.47;97389.94;5028269;28;20041;-79
2022/04/03 03:59:14;;;;;;;6.72;4.00;;;;;;;2.97;60.29;97387.34;5011184;28;20022;-79
2022/04/03 04:01:40;;;;;;;5.22;3.60;;;;;;;3.06;60.25;97395.69;5021685;28;20029;-79
2022/04/03 04:04:05;;;;;;;6.45;3.53;;;;;;;3.07;59.93;97398.06;5008141;28;20034;-79
2022/04/03 04:06:31;;;;;;;9.00;3.72;;;;;;;3.05;59.85;97394.91;5029745;28;20068;-79
2022/04/03 04:08:56;;;;;;;6.57;3.90;;;;;;;3.04;60.55;97400.25;5027702;28;20069;-79
2022/04/03 04:11:21;;;;;;;4.88;3.47;;;;;;;3.07;60.49;97403.22;5011539;28;20065;-79
2022/04/03 04:13:47;;;;;;;6.32;3.60;;;;;;;3.04;60.52;97400.25;4995209;28;20314;-79
2022/04/03 04:16:14;;;;;;;7.45;3.88;;;;;;;3.01;60.86;97391.09;5044554;28;20045;-79
2022/04/03 04:18:39;;;;;;;6.03;3.38;;;;;;;3.04;61.38;97408.75;5028394;28;20021;-79
2022/04/03 04:21:05;;;;;;;8.07;4.75;;;;;;;3.05;60.83;97407.78;5011269;28;20029;-79
2022/04/03 04:23:31;;;;;;;8.63;4.13;;;;;;;2.99;60.67;97398.22;5027764;28;20037;-79
2022/04/03 04:25:56;;;;;;;7.97;4.63;;;;;;;3.06;60.82;97409.34;5027354;28;20045;-79
2022/04/03 04:28:22;;;;;;;6.53;4.13;;;;;;;3.07;61.03;97410.13;5010882;28;20080;-79
2022/04/03 04:30:47;;;;;;;7.95;4.57;;;;;;;3.00;60.70;97404.97;5027753;28;20474;-79
2022/04/03 04:33:12;;;;;;;8.70;5.25;;;;;;;2.97;60.76;97415.63;5027647;28;20477;-79
2022/04/03 04:35:38;;;;;;;6.68;4.22;;;;;;;2.89;60.68;97413.22;5027615;28;20029;-79
2022/04/03 04:38:03;;;;;;;7.18;3.97;;;;;;;2.89;60.90;97419.13;5027256;28;20044;-79
2022/04/03 04:40:29;;;;;;;6.97;4.32;;;;;;;2.90;61.00;97419.94;5043422;28;20025;-79
2022/04/03 04:42:55;;;;;;;7.07;3.67;;;;;;;2.92;61.22;97415.41;5027309;28;20040;-79
2022/04/03 04:45:21;;;;;;;5.50;3.88;;;;;;;2.95;60.88;97417.59;5027220;28;20025;-79
2022/04/03 04:47:48;;;;;;;5.63;3.72;;;;;;;2.97;60.81;97419.00;5026985;28;20083;-79
2022/04/03 04:50:14;;;;;;;5.72;3.80;;;;;;;2.94;60.68;97428.88;5010958;28;20064;-79
2022/04/03 04:52:41;;;;;;;7.32;3.88;;;;;;;2.91;60.97;97429.25;5027326;28;20087;-79
2022/04/03 04:55:07;;;;;;;6.22;3.72;;;;;;;2.93;60.82;97428.09;5027000;28;20040;-79
2022/04/03 04:57:37;;;;;;;8.13;3.67;;;;;;;2.80;60.57;97430.56;5027080;28;20108;-79
2022/04/03 05:00:05;;;;;;;5.75;3.55;;;;;;;2.81;60.64;97425.22;4994037;28;20026;-79
2022/04/03 05:02:31;;;;;;;6.22;3.88;;;;;;;2.92;60.63;97425.69;5023477;28;20026;-79
2022/04/03 05:04:56;;;;;;;6.57;3.50;;;;;;;2.89;60.34;97433.78;4990856;28;20422;-79
2022/04/03 05:07:22;;;;;;;5.72;3.45;;;;;;;2.81;60.97;97430.38;5016050;28;20109;-79
2022/04/03 05:09:48;;;;;;;5.88;3.10;;;;;;;2.85;60.80;97435.16;5007040;28;20049;-79
2022/04/03 05:12:15;;;;;;;5.85;3.45;;;;;;;2.86;60.71;97439.28;5007068;28;20505;-79
2022/04/03 05:14:41;;;;;;;10.32;5.15;;;;;;;2.85;60.39;97438.50;5007192;28;20034;-79
2022/04/03 05:17:06;;;;;;;7.05;4.72;;;;;;;2.85;60.45;97442.88;5007243;28;20581;-79
2022/04/03 05:19:33;;;;;;;8.35;4.70;;;;;;;2.76;60.77;97450.72;5006524;28;20025;-79
2022/04/03 05:21:58;;;;;;;13.18;4.25;;;;;;;2.65;60.40;97440.94;4974517;28;20402;-79
2022/04/03 05:24:24;;;;;;;7.22;3.80;;;;;;;2.73;60.54;97443.38;4990318;28;20038;-79
2022/04/03 05:26:50;;;;;;;7.93;4.13;;;;;;;2.74;60.79;97447.53;4990589;28;20399;-79
2022/04/03 05:29:15;;;;;;;6.35;3.85;;;;;;;2.76;60.88;97448.16;4990319;28;20222;-79
2022/04/03 05:31:41;;;;;;;8.88;4.40;;;;;;;2.79;60.58;97452.91;4974564;28;20022;-79
2022/04/03 05:34:06;;;;;;;9.93;5.28;;;;;;;2.74;60.60;97460.41;4990791;28;20117;-79
2022/04/03 05:36:31;;;;;;;9.68;5.35;;;;;;;2.78;60.99;97456.47;5006618;28;20038;-79
2022/04/03 05:38:57;;;;;;;10.07;5.65;;;;;;;2.75;60.38;97456.03;5006738;28;20561;-79
2022/04/03 05:41:22;;;;;;;9.18;5.57;;;;;;;2.72;60.68;97456.41;5006990;28;20386;-79
2022/04/03 05:43:47;;;;;;;9.02;5.50;;;;;;;2.76;60.18;97462.75;4990390;28;20496;-79
2022/04/03 05:46:13;;;;;;;7.93;4.43;;;;;;;2.78;60.30;97463.38;5006798;28;20033;-79
2022/04/03 05:48:38;;;;;;;7.53;5.22;;;;;;;2.86;59.96;97462.44;5006630;28;20033;-79
2022/04/03 05:51:04;;;;;;;15.98;9.25;;;;;;;2.89;60.68;97469.78;5007043;28;20425;-79
2022/04/03 05:53:30;;;;;;;11.65;7.22;;;;;;;2.91;60.73;97470.38;4994278;28;20320;-79
2022/04/03 05:55:55;;;;;;;10.60;6.50;;;;;;;2.86;59.92;97470.16;5011850;28;20033;-79
2022/04/03 05:58:21;;;;;;;9.50;6.20;;;;;;;2.92;59.74;97469.41;4994161;28;20030;-79
2022/04/03 06:00:46;;;;;;;8.13;5.25;;;;;;;2.92;59.50;97466.84;4994505;28;20034;-79
2022/04/03 06:03:12;;;;;;;10.43;5.30;;;;;;;3.08;59.50;97473.47;5010745;28;20037;-79
2022/04/03 06:05:40;;;;;;;8.02;5.22;;;;;;;3.11;59.35;97476.44;5010271;28;20042;-79
2022/04/03 06:08:06;;;;;;;8.63;4.57;;;;;;;3.10;58.92;97476.63;5029702;28;20245;-78
2022/04/03 06:10:34;;;;;;;7.00;4.93;;;;;;;3.19;58.61;97481.47;5013744;28;20037;-79
2022/04/03 06:13:09;;;;;;;8.77;5.10;;;;;;;3.09;58.81;97482.78;5046126;28;20104;-79
2022/04/03 06:15:39;;;;;;;7.85;3.92;;;;;;;3.25;58.78;97484.25;4997145;28;20029;-79
2022/04/03 06:18:07;;;;;;;6.70;4.50;;;;;;;3.25;58.06;97489.41;5013476;28;20037;-79
2022/04/03 06:20:33;;;;;;;6.20;3.65;;;;;;;3.30;58.05;97487.06;5013701;28;20034;-79
2022/04/03 06:22:59;;;;;;;6.53;4.35;;;;;;;3.25;57.57;97494.53;5013381;28;20389;-79
2022/04/03 06:25:24;;;;;;;6.15;3.85;;;;;;;3.29;57.56;97501.72;5013511;28;20497;-79
2022/04/03 06:27:51;;;;;;;5.57;3.85;;;;;;;3.29;57.77;97501.72;5029341;28;20376;-79
2022/04/03 06:30:16;;;;;;;7.35;4.43;;;;;;;3.35;57.91;97503.50;5046494;28;20057;-79
2022/04/03 06:32:42;;;;;;;6.68;4.10;;;;;;;3.35;57.87;97510.44;5013533;28;20068;-79
2022/04/03 06:35:08;;;;;;;7.93;4.40;;;;;;;3.43;57.67;97507.72;5046189;28;20033;-79
2022/04/03 06:37:34;;;;;;;5.82;3.90;;;;;;;3.53;57.85;97513.31;5029668;28;20509;-79
2022/04/03 06:39:59;;;;;;;5.65;3.47;;;;;;;3.64;57.65;97516.34;5029294;28;20060;-79
2022/04/03 06:42:25;;;;;;;5.65;3.25;;;;;;;3.61;57.04;97514.94;5030864;28;20108;-79
2022/04/03 06:44:50;;;;;;;7.68;4.60;;;;;;;3.87;56.79;97521.19;5029421;28;20124;-78
2022/04/03 06:47:16;;;;;;;6.22;3.83;;;;;;;3.83;56.55;97519.97;5029903;28;20590;-79
2022/04/03 06:49:41;;;;;;;7.22;3.67;;;;;;;3.82;55.59;97526.94;5012569;28;20040;-79
2022/04/03 06:52:08;;;;;;;6.60;3.92;;;;;;;3.83;56.36;97527.72;5046041;28;20083;-79
2022/04/03 06:54:34;;;;;;;5.90;4.15;;;;;;;3.66;55.06;97528.03;5013008;28;20044;-79
2022/04/03 06:56:59;;;;;;;5.78;3.60;;;;;;;3.45;54.94;97531.50;5012840;28;20034;-78
2022/04/03 06:59:24;;;;;;;8.52;4.28;;;;;;;3.62;54.91;97531.19;5029197;28;20033;-78
2022/04/03 07:01:50;;;;;;;6.10;3.92;;;;;;;3.61;54.78;97538.09;5021215;28;20096;-79
2022/04/03 07:04:15;;;;;;;8.30;4.60;;;;;;;3.77;53.79;97539.59;5008763;28;20109;-79
2022/04/03 07:06:40;;;;;;;6.47;4.10;;;;;;;3.56;54.34;97549.00;5015939;28;20026;-78
2022/04/03 07:09:06;;;;;;;9.55;5.50;;;;;;;3.89;53.32;97535.47;5012381;28;20033;-78
2022/04/03 07:11:31;;;;;;;7.78;4.68;;;;;;;4.10;53.15;97544.06;5029224;28;20033;-78
2022/04/03 07:13:56;;;;;;;5.25;3.05;;;;;;;4.07;52.57;97534.91;5028944;28;20025;-79
2022/04/03 07:16:22;;;;;;;6.00;3.95;;;;;;;4.26;51.85;97543.69;5030462;28;20113;-78
2022/04/03 07:18:47;;;;;;;9.05;3.97;;;;;;;4.15;51.75;97544.28;5012075;28;20036;-78
2022/04/03 07:21:13;;;;;;;5.57;3.45;;;;;;;4.01;51.64;97545.19;5029227;28;20481;-77
2022/04/03 07:23:38;;;;;;;4.80;3.40;;;;;;;4.43;51.79;97556.25;5028738;28;20069;-78
2022/04/03 07:26:05;;;;;;;6.22;4.15;;;;;;;4.74;51.68;97554.91;5028712;28;20045;-78
2022/04/03 07:28:31;;;;;;;3.72;2.70;;;;;;;4.89;50.42;97555.50;5045108;28;20100;-77
2022/04/03 07:30:56;;;;;;;5.82;3.72;;;;;;;4.96;50.03;97555.50;4995908;28;20117;-77
2022/04/03 07:33:22;;;;;;;5.13;3.42;;;;;;;4.90;50.00;97551.94;5045731;28;20112;-78
2022/04/03 07:35:48;;;;;;;4.95;3.28;;;;;;;4.76;50.04;97560.66;5028579;28;20045;-77
2022/04/03 07:38:14;;;;;;;5.22;3.08;;;;;;;5.15;48.63;97559.84;5012114;28;20433;-77
2022/04/03 07:40:39;;;;;;;5.28;2.97;;;;;;;4.92;48.77;97556.88;5029072;28;20034;-77
2022/04/03 07:43:06;;;;;;;6.70;3.30;;;;;;;4.82;49.49;97562.44;5012261;28;20502;-78
2022/04/03 07:45:32;;;;;;;5.43;3.17;;;;;;;5.19;49.12;97565.41;5012312;28;20040;-77
2022/04/03 07:47:58;;;;;;;5.85;3.30;;;;;;;5.35;48.61;97570.19;5011770;28;20033;-76
2022/04/03 07:50:25;;;;;;;7.70;3.47;;;;;;;5.61;48.54;97561.56;5028379;28;20105;-76
2022/04/03 07:52:55;;;;;;;6.88;3.30;;;;;;;5.95;48.58;97572.63;5028024;28;20017;-76
2022/04/03 07:55:20;;;;;;;5.45;3.15;;;;;;;6.01;47.51;97573.59;5012046;28;20033;-77
2022/04/03 07:57:46;;;;;;;6.47;3.28;;;;;;;6.28;47.05;97570.91;5027875;28;20029;-77
2022/04/03 08:00:12;;;;;;;5.10;3.67;;;;;;;6.44;46.45;97574.81;5045194;28;20071;-77
2022/04/03 08:02:39;;;;;;;4.53;3.08;;;;;;;6.28;46.73;97570.91;4997174;28;20029;-77
2022/04/03 08:05:05;;;;;;;4.50;3.03;;;;;;;6.10;46.73;97577.56;4991788;28;20044;-77
2022/04/03 08:07:38;;;;;;;5.53;3.00;;;;;;;5.35;47.88;97577.94;5037862;28;20033;-78
2022/04/03 08:10:06;;;;;;;4.45;2.90;;;;;;;6.15;47.66;97582.91;5011468;28;20041;-77
2022/04/03 08:12:32;;;;;;;4.75;3.00;;;;;;;6.02;46.63;97590.72;5028222;28;20130;-77
2022/04/03 08:14:57;;;;;;;4.45;2.90;;;;;;;5.44;46.97;97591.41;5027869;28;20088;-77
2022/04/03 08:17:23;;;;;;;6.72;3.50;;;;;;;5.53;48.24;97589.41;5011578;28;20432;-76
2022/04/03 08:19:48;;;;;;;4.47;2.70;;;;;;;5.90;46.63;97584.56;5027476;28;20037;-77
2022/04/03 08:22:14;;;;;;;6.03;3.00;;;;;;;5.73;46.33;97597.91;5027411;28;20033;-77
2022/04/03 08:24:39;;;;;;;6.70;3.38;;;;;;;6.16;46.72;97599.22;5010968;28;20096;-78
2022/04/03 08:27:05;;;;;;;4.88;3.33;;;;;;;6.56;45.94;97588.66;5027437;28;20482;-77
2022/04/03 08:29:31;;;;;;;6.78;3.08;;;;;;;6.25;45.58;97597.19;5043765;28;20037;-78
2022/04/03 08:31:56;;;;;;;4.35;3.08;;;;;;;5.88;44.85;97602.84;5027566;28;20041;-79
2022/04/03 08:34:21;;;;;;;3.47;2.90;;;;;;;5.45;46.01;97603.34;5011164;28;20100;-78
2022/04/03 08:36:47;;;;;;;3.97;2.40;;;;;;;5.93;44.92;97604.81;5044202;28;20034;-77
2022/04/03 08:39:12;;;;;;;3.58;2.72;;;;;;;6.58;45.44;97597.03;5028286;28;20033;-77
2022/04/03 08:41:37;;;;;;;3.65;2.30;;;;;;;6.66;43.57;97599.34;5027430;28;20033;-77
2022/04/03 08:44:07;;;;;;;4.18;2.47;;;;;;;6.81;44.58;97596.47;5028454;28;20389;-77
2022/04/03 08:46:33;;;;;;;5.45;2.72;;;;;;;7.45;42.69;97596.38;5027857;28;20033;-77
2022/04/03 08:49:01;;;;;;;6.60;2.80;;;;;;;7.35;43.50;97590.91;5043435;28;20029;-78
2022/04/03 08:51:28;;;;;;;4.28;2.30;;;;;;;6.34;43.53;97596.75;5028323;28;20563;-78
2022/04/03 08:53:53;;;;;;;2.47;1.95;;;;;;;6.56;43.18;97605.00;5027555;28;20441;-79
2022/04/03 08:56:19;;;;;;;4.32;1.85;;;;;;;5.58;43.21;97610.28;5027018;28;20201;-78
2022/04/03 08:58:44;;;;;;;4.57;2.15;;;;;;;5.66;44.16;97612.66;5026793;28;20056;-77
2022/04/03 09:01:10;;;;;;;4.18;2.28;;;;;;;5.47;44.21;97610.88;5043431;28;20026;-78
2022/04/03 09:03:37;;;;;;;3.55;2.50;;;;;;;4.97;43.45;97616.44;5027021;28;20083;-78
2022/04/03 09:06:17;;;;;;;2.97;1.45;;;;;;;4.44;43.14;97609.41;5010298;28;20059;-78
2022/04/03 09:08:43;;;;;;;5.05;1.48;;;;;;;3.98;44.98;97617.75;5026831;28;20040;-78
2022/04/03 09:11:09;;;;;;;3.00;1.60;;;;;;;4.28;44.18;97624.22;5043630;28;20037;-78
2022/04/03 09:13:36;;;;;;;5.40;1.83;;;;;;;4.67;44.42;97624.53;5026979;28;20116;-77
2022/04/03 09:16:02;;;;;;;6.00;2.10;;;;;;;4.95;44.36;97623.56;5026938;28;20445;-78
2022/04/03 09:18:43;;;;;;;3.67;1.98;;;;;;;4.66;43.78;97628.91;5026252;28;20059;-77
2022/04/03 09:21:35;;;;;;;4.05;2.13;;;;;;;4.60;43.07;97623.72;4994148;28;20032;-78
2022/04/03 09:24:02;;;;;;;5.53;2.88;;;;;;;4.71;43.46;97627.50;5024884;28;20497;-78
2022/04/03 09:26:28;;;;;;;5.28;2.40;;;;;;;4.77;42.53;97626.75;4993571;28;20046;-78
2022/04/03 09:29:16;;;;;;;3.80;1.88;;;;;;;4.64;43.91;97628.31;5027306;28;20034;-77
2022/04/03 09:31:44;;;;;;;3.50;1.90;;;;;;;4.88;44.61;97628.72;5026728;28;20021;-77
2022/04/03 09:34:18;;;;;;;3.25;1.88;;;;;;;4.89;43.62;97630.31;5026662;28;20025;-77
2022/04/03 09:37:00;;;;;;;5.78;1.98;;;;;;;5.00;44.28;97634.91;5026640;28;20525;-78
2022/04/03 09:39:28;;;;;;;3.15;1.90;;;;;;;5.28;43.45;97644.28;5026013;28;20417;-78
2022/04/03 09:42:04;;;;;;;2.55;1.60;;;;;;;4.92;44.22;97632.53;5009876;28;20065;-77
2022/04/03 09:44:38;;;;;;;3.17;1.80;;;;;;;5.11;43.25;97645.66;5010351;28;20033;-77
2022/04/03 09:47:14;;;;;;;2.28;1.70;;;;;;;5.01;43.43;97641.66;5026440;28;20571;-77
2022/04/03 09:49:41;;;;;;;3.35;1.77;;;;;;;4.89;43.28;97640.66;5026454;28;20357;-78
2022/04/03 09:52:07;;;;;;;2.65;1.65;;;;;;;5.05;42.43;97647.22;5026802;28;20770;-79
2022/04/03 09:54:32;;;;;;;2.92;1.75;;;;;;;5.06;42.54;97636.69;5043029;28;20524;-77
2022/04/03 09:57:21;;;;;;;2.67;1.70;;;;;;;4.59;41.58;97641.00;5026457;28;20077;-78
2022/04/03 09:59:51;;;;;;;3.75;2.10;;;;;;;4.82;41.82;97643.22;5026294;28;20033;-78
2022/04/03 10:02:17;;;;;;;3.47;1.42;;;;;;;5.05;41.44;97635.13;5031315;28;20490;-79
2022/04/03 10:04:44;;;;;;;4.00;2.22;;;;;;;5.14;42.10;97634.91;5006555;28;20061;-77
2022/04/03 10:07:12;;;;;;;2.25;1.75;;;;;;;5.46;40.51;97641.06;5013840;28;20513;-77
2022/04/03 10:09:44;;;;;;;2.78;1.63;;;;;;;4.78;41.08;97634.28;5022755;28;20038;-78
2022/04/03 10:12:09;;;;;;;3.40;1.80;;;;;;;5.20;42.44;97634.91;5023264;28;20050;-78
2022/04/03 10:14:34;;;;;;;3.10;1.55;;;;;;;5.44;41.44;97628.34;5023115;28;20022;-77
2022/04/03 10:17:00;;;;;;;3.92;1.67;;;;;;;4.87;40.93;97627.94;5023209;28;20042;-78
2022/04/03 10:19:25;;;;;;;3.38;1.58;;;;;;;5.06;40.17;97630.75;5022932;28;20040;-77
2022/04/03 10:21:54;;;;;;;2.88;1.35;;;;;;;5.74;39.06;97640.03;5006432;28;20105;-77
2022/04/03 10:24:23;;;;;;;2.17;1.17;;;;;;;6.26;38.61;97633.19;5022816;28;20311;-78
2022/04/03 10:27:12;;;;;;;2.50;1.40;;;;;;;5.75;39.60;97636.47;5006359;28;20037;-79
2022/04/03 10:29:39;;;;;;;3.22;1.60;;;;;;;5.82;37.85;97619.16;5006599;28;20037;-77
2022/04/03 10:32:05;;;;;;;3.17;1.33;;;;;;;6.16;38.29;97635.41;5006338;28;20042;-79
2022/04/03 10:34:32;;;;;;;2.15;1.35;;;;;;;6.04;37.21;97632.66;5022650;28;20034;-77
2022/04/03 10:36:58;;;;;;;2.58;1.13;;;;;;;6.21;36.01;97630.41;4990055;28;20301;-77
2022/04/03 10:39:26;;;;;;;4.13;1.55;;;;;;;6.05;37.32;97630.84;5024705;28;20116;-78
2022/04/03 10:42:24;;;;;;;1.67;1.10;;;;;;;5.72;37.56;97626.53;5009927;28;20231;-78
2022/04/03 10:45:11;;;;;;;2.45;1.30;;;;;;;5.73;36.45;97636.69;4994192;28;20069;-78
2022/04/03 10:47:41;;;;;;;2.58;1.35;;;;;;;5.17;37.27;97631.94;5010840;28;20379;-78
2022/04/03 10:50:08;;;;;;;2.78;1.60;;;;;;;5.24;36.91;97638.72;5009726;28;20094;-78
2022/04/03 10:52:36;;;;;;;2.00;1.40;;;;;;;5.67;38.06;97636.69;5026169;28;20540;-77
2022/04/03 10:55:26;;;;;;;2.28;1.50;;;;;;;5.97;38.19;97632.66;5009630;28;20057;-78
2022/04/03 10:57:54;;;;;;;2.67;1.00;;;;;;;6.85;32.67;97615.75;5009219;28;20314;-77
2022/04/03 11:00:19;;;;;;;1.73;1.20;;;;;;;7.97;37.91;97620.19;5026307;28;20472;-78
2022/04/03 11:03:14;;;;;;;2.45;1.10;;;;;;;7.85;33.53;97614.16;5009544;28;20062;-79
2022/04/03 11:05:45;;;;;;;2.10;1.30;;;;;;;7.78;36.34;97611.63;5018230;28;20494;-79
2022/04/03 11:08:10;;;;;;;2.72;1.70;;;;;;;7.71;34.30;97617.88;5008396;28;20037;-79
2022/04/03 11:10:57;;;;;;;2.17;1.25;;;;;;;7.28;34.55;97603.91;5025941;28;20486;-79
2022/04/03 11:13:28;;;;;;;4.10;1.73;;;;;;;7.29;34.37;97600.31;5010911;28;20294;-78
2022/04/03 11:16:00;;;;;;;2.63;1.33;;;;;;;7.54;35.62;97605.47;5010502;28;20521;-80
2022/04/03 11:18:33;;;;;;;2.10;1.10;;;;;;;7.71;34.91;97599.72;5008889;28;20141;-78
2022/04/03 11:21:22;;;;;;;2.58;1.00;;;;;;;7.61;33.71;97598.44;5025838;28;20033;-78
2022/04/03 11:23:52;;;;;;;1.98;1.30;;;;;;;7.67;35.95;97602.75;5025713;28;20056;-78
2022/04/03 11:26:18;;;;;;;1.95;0.95;;;;;;;7.54;32.99;97595.13;5010984;28;20034;-79
2022/04/03 11:28:44;;;;;;;1.33;1.00;;;;;;;7.38;34.36;97601.63;5009024;28;20497;-78
2022/04/03 11:31:10;;;;;;;2.35;1.63;;;;;;;7.05;34.49;97596.72;5025294;28;20095;-78
2022/04/03 11:33:37;;;;;;;1.70;1.00;;;;;;;6.88;34.17;97592.06;4991652;28;20479;-79
2022/04/03 11:36:11;;;;;;;2.00;1.30;;;;;;;7.67;37.00;97589.78;4991836;28;20037;-78
2022/04/03 11:38:46;;;;;;;2.50;1.00;;;;;;;8.20;33.84;97585.03;5008429;28;20079;-79
2022/04/03 11:41:17;;;;;;;1.70;1.17;;;;;;;8.10;35.32;97582.16;4976762;28;20032;-79